Time;durP1;ratioP1;P1;durP2;ratioP2;P2;SDS_P1;SDS_P2;PMS_P1;PMS_P2;Temp;Humidity;BMP_temperature;BMP_pressure;BME280_temperature;BME280_humidity;BME280_pressure;Samples;Min_cycle;Max_cycle;Signal;HPM_P1;HPM_P2
2022/04/21 00:02:14;;;;;;;5.50;4.38;;;6.80;47.30;;;;;;5051049;28;20035;-76
2022/04/21 00:04:40;;;;;;;8.55;4.90;;;6.80;47.30;;;;;;5051391;28;20039;-76
2022/04/21 00:07:05;;;;;;;5.53;3.83;;;6.90;47.50;;;;;;5051230;28;20049;-76
2022/04/21 00:09:31;;;;;;;8.15;5.18;;;6.90;47.50;;;;;;5051640;28;20052;-75
2022/04/21 00:11:57;;;;;;;8.70;4.43;;;6.80;47.50;;;;;;5051575;28;20025;-76
2022/04/21 00:14:22;;;;;;;8.73;5.07;;;6.80;47.60;;;;;;5051238;28;20017;-75
2022/04/21 00:16:48;;;;;;;8.60;4.72;;;6.70;47.70;;;;;;5051241;28;20029;-76
2022/04/21 00:19:13;;;;;;;7.22;4.95;;;6.60;47.70;;;;;;5051311;28;20028;-76
2022/04/21 00:24:23;;;;;;;5.95;4.47;;;6.60;47.90;;;;;;5053051;28;20036;-76
2022/04/21 00:26:48;;;;;;;5.90;3.78;;;6.60;48.00;;;;;;5051494;28;20037;-76
2022/04/21 00:29:14;;;;;;;6.13;4.05;;;6.60;48.10;;;;;;5051812;28;20103;-75
2022/04/21 00:31:39;;;;;;;7.40;4.82;;;6.60;48.20;;;;;;5051353;28;20029;-75
2022/04/21 00:34:05;;;;;;;8.43;4.75;;;6.60;48.30;;;;;;5051158;28;20044;-76
2022/04/21 00:36:30;;;;;;;9.15;4.93;;;6.60;48.30;;;;;;5052359;28;20092;-75
2022/04/21 00:38:56;;;;;;;9.18;4.63;;;6.40;48.60;;;;;;5051167;28;20029;-76
2022/04/21 00:41:21;;;;;;;7.90;5.00;;;6.30;48.80;;;;;;5051404;28;20021;-76
2022/04/21 00:43:48;;;;;;;6.18;4.45;;;6.20;49.00;;;;;;5052420;28;20498;-75
2022/04/21 00:46:23;;;;;;;6.25;4.38;;;6.10;49.40;;;;;;5051115;28;20029;-76
2022/04/21 00:48:49;;;;;;;5.63;4.43;;;6.00;49.70;;;;;;5052349;28;20529;-75
2022/04/21 00:51:17;;;;;;;6.57;4.55;;;6.00;49.80;;;;;;5051027;28;20061;-75
2022/04/21 00:53:43;;;;;;;7.15;5.15;;;6.00;49.90;;;;;;5051245;28;20432;-76
2022/04/21 00:56:10;;;;;;;6.90;4.88;;;6.10;50.00;;;;;;5052472;28;20021;-76
2022/04/21 00:58:37;;;;;;;8.52;4.97;;;6.10;49.90;;;;;;5051400;28;20033;-76
2022/04/21 01:02:46;;;;;;;6.68;4.50;;;6.10;49.80;;;;;;5051208;28;20032;-75
2022/04/21 01:03:49;;;;;;;6.68;4.82;;;6.20;49.70;;;;;;5052269;28;20540;-76
2022/04/21 01:06:15;;;;;;;7.03;5.00;;;6.20;49.60;;;;;;5050667;28;20049;-76
2022/04/21 01:08:41;;;;;;;7.85;5.70;;;6.20;49.80;;;;;;5052061;28;20052;-75
2022/04/21 01:11:07;;;;;;;7.63;5.05;;;6.10;49.90;;;;;;5051154;28;20566;-77
2022/04/21 01:13:34;;;;;;;8.50;5.40;;;6.00;50.80;;;;;;5053884;28;20053;-76
2022/04/21 01:16:00;;;;;;;8.88;4.65;;;6.00;50.20;;;;;;5054833;28;20032;-76
2022/04/21 01:18:27;;;;;;;8.02;5.07;;;6.00;50.20;;;;;;5054712;28;20021;-76
2022/04/21 01:20:54;;;;;;;6.15;4.47;;;6.10;50.00;;;;;;5054718;28;20027;-76
2022/04/21 01:23:19;;;;;;;7.05;4.13;;;6.10;50.10;;;;;;5054534;28;20027;-76
2022/04/21 01:25:45;;;;;;;8.07;4.70;;;6.10;50.00;;;;;;5054415;28;20021;-76
2022/04/21 01:28:12;;;;;;;6.45;4.38;;;6.10;49.90;;;;;;5054451;28;20128;-76
2022/04/21 01:30:38;;;;;;;7.68;4.07;;;6.10;50.50;;;;;;5055761;28;20021;-76
2022/04/21 01:33:04;;;;;;;7.70;4.50;;;6.20;49.60;;;;;;5056418;28;20027;-77
2022/04/21 01:35:30;;;;;;;7.20;4.90;;;6.20;49.60;;;;;;5054545;28;20115;-77
2022/04/21 01:43:24;;;;;;;7.65;4.63;;;6.20;49.60;;;;;;5055888;28;20032;-76
2022/04/21 01:45:49;;;;;;;8.68;4.60;;;6.10;50.00;;;;;;5054688;28;20116;-77
2022/04/21 01:48:15;;;;;;;6.68;4.47;;;6.10;50.00;;;;;;5053976;28;20037;-77
2022/04/21 01:50:41;;;;;;;7.10;4.30;;;6.10;50.10;;;;;;5054213;28;20025;-76
2022/04/21 01:53:06;;;;;;;7.70;4.25;;;6.10;50.20;;;;;;5055444;28;20021;-76
2022/04/21 01:55:32;;;;;;;10.57;4.90;;;6.10;50.30;;;;;;5053765;28;20048;-76
2022/04/21 01:57:58;;;;;;;5.40;3.95;;;6.10;50.60;;;;;;5053839;28;20025;-76
2022/04/21 02:00:24;;;;;;;6.25;4.07;;;6.00;50.70;;;;;;5054048;28;20048;-77
2022/04/21 02:02:50;;;;;;;6.22;4.70;;;5.90;50.90;;;;;;5054044;28;20093;-78
2022/04/21 02:05:15;;;;;;;7.20;4.30;;;5.90;51.10;;;;;;5053677;28;20391;-76
2022/04/21 02:07:46;;;;;;;8.77;4.70;;;5.80;51.40;;;;;;5037053;28;20060;-76
2022/04/21 02:10:13;;;;;;;7.90;4.20;;;5.80;51.90;;;;;;5055224;28;20064;-76
2022/04/21 02:12:39;;;;;;;7.07;4.80;;;5.80;52.00;;;;;;5054882;28;20033;-76
2022/04/21 02:15:06;;;;;;;8.07;4.40;;;5.70;52.00;;;;;;5053846;28;20174;-77
2022/04/21 02:17:33;;;;;;;6.80;5.18;;;5.70;52.00;;;;;;5054729;28;20112;-77
2022/04/21 02:19:59;;;;;;;7.00;4.95;;;5.70;52.10;;;;;;5054745;28;20087;-77
2022/04/21 02:22:25;;;;;;;6.70;4.38;;;5.60;52.20;;;;;;5054820;28;20115;-77
2022/04/21 02:24:51;;;;;;;5.88;4.57;;;5.60;52.20;;;;;;5053180;28;20078;-77
2022/04/21 02:27:16;;;;;;;6.13;4.18;;;5.70;52.50;;;;;;5054699;28;20037;-77
2022/04/21 02:29:42;;;;;;;6.35;4.88;;;5.70;52.40;;;;;;5053202;28;20057;-76
2022/04/21 02:32:08;;;;;;;7.00;4.50;;;5.70;52.20;;;;;;5053003;28;20051;-77
2022/04/21 02:34:34;;;;;;;7.95;4.35;;;5.70;52.10;;;;;;5052918;28;20027;-77
2022/04/21 02:37:00;;;;;;;6.38;4.72;;;5.80;52.10;;;;;;5053551;28;20025;-77
2022/04/21 02:39:25;;;;;;;5.05;4.22;;;5.70;52.10;;;;;;5053010;28;20398;-77
2022/04/21 02:41:51;;;;;;;5.85;4.90;;;5.70;52.20;;;;;;5037008;28;20033;-77
2022/04/21 02:44:17;;;;;;;7.80;4.78;;;5.60;52.10;;;;;;5052944;28;20025;-78
2022/04/21 02:46:43;;;;;;;7.20;4.50;;;5.60;52.20;;;;;;5052980;28;20040;-78
2022/04/21 02:49:10;;;;;;;8.50;4.80;;;5.50;52.60;;;;;;5054112;28;20029;-78
2022/04/21 02:51:36;;;;;;;9.60;4.75;;;5.50;53.00;;;;;;5052937;28;20033;-77
2022/04/21 02:59:30;;;;;;;7.57;4.60;;;5.40;53.40;;;;;;5054451;28;20058;-77
2022/04/21 03:01:57;;;;;;;6.28;4.47;;;5.40;53.70;;;;;;5052070;28;20026;-77
2022/04/21 03:04:23;;;;;;;8.40;5.25;;;5.40;53.90;;;;;;5052708;28;20509;-77
2022/04/21 03:06:48;;;;;;;7.95;5.20;;;5.40;53.90;;;;;;5035785;28;20057;-77
2022/04/21 03:09:14;;;;;;;7.10;4.80;;;5.40;53.90;;;;;;5052739;28;20042;-77
2022/04/21 03:11:39;;;;;;;6.65;4.20;;;5.50;53.90;;;;;;5053569;28;20024;-76
2022/04/21 03:14:05;;;;;;;9.52;5.07;;;5.50;53.80;;;;;;5052066;28;20025;-76
2022/04/21 03:16:31;;;;;;;8.43;5.15;;;5.50;53.90;;;;;;5052774;28;20024;-77
2022/04/21 03:18:56;;;;;;;9.27;5.32;;;5.40;54.00;;;;;;5052285;28;20021;-77
2022/04/21 03:24:21;;;;;;;6.85;4.90;;;5.30;54.30;;;;;;5052996;28;20138;-77
2022/04/21 03:26:50;;;;;;;9.40;5.03;;;5.30;54.30;;;;;;5052248;28;20064;-77
2022/04/21 03:29:18;;;;;;;11.02;5.57;;;5.30;54.30;;;;;;5053408;28;20044;-77
2022/04/21 03:31:45;;;;;;;5.28;4.15;;;5.30;54.40;;;;;;5052143;28;20485;-76
2022/04/21 03:34:12;;;;;;;9.63;4.43;;;5.30;54.40;;;;;;5051927;28;20029;-77
2022/04/21 03:36:38;;;;;;;6.38;4.57;;;5.30;54.50;;;;;;5052304;28;20021;-76
2022/04/21 03:39:04;;;;;;;7.28;5.43;;;5.20;54.70;;;;;;5052117;28;20021;-77
2022/04/21 03:41:29;;;;;;;5.88;4.20;;;5.10;55.20;;;;;;5053261;28;20505;-76
2022/04/21 03:43:55;;;;;;;6.50;4.45;;;5.10;55.20;;;;;;5052098;28;20021;-77
2022/04/21 03:46:20;;;;;;;11.27;4.80;;;5.10;55.50;;;;;;5051548;28;20036;-77
2022/04/21 03:48:46;;;;;;;8.48;5.15;;;5.00;55.60;;;;;;5052773;28;20033;-76
2022/04/21 03:51:12;;;;;;;7.15;5.03;;;4.90;56.30;;;;;;5035226;28;20116;-77
2022/04/21 03:53:37;;;;;;;10.88;7.32;;;4.80;56.30;;;;;;5051958;28;20516;-76
2022/04/21 03:56:03;;;;;;;8.68;5.80;;;4.80;56.70;;;;;;5052782;28;20421;-76
2022/04/21 03:58:29;;;;;;;6.68;4.80;;;4.80;57.00;;;;;;5051187;28;20075;-76
2022/04/21 04:00:56;;;;;;;6.90;5.30;;;4.80;56.90;;;;;;5051327;28;20495;-76
2022/04/21 04:03:21;;;;;;;10.45;6.10;;;4.70;57.10;;;;;;5051704;28;20017;-77
2022/04/21 04:05:47;;;;;;;9.52;5.10;;;4.70;57.30;;;;;;5053017;28;20032;-77
2022/04/21 04:10:59;;;;;;;7.47;5.22;;;4.60;57.10;;;;;;5053072;28;20076;-76
2022/04/21 04:13:24;;;;;;;8.50;5.47;;;4.60;57.10;;;;;;5051524;28;20025;-77
2022/04/21 04:15:51;;;;;;;8.65;6.25;;;4.60;57.10;;;;;;5051127;28;20017;-76
2022/04/21 04:18:21;;;;;;;8.75;6.03;;;4.60;57.40;;;;;;5051785;28;20025;-77
2022/04/21 04:20:47;;;;;;;9.70;6.30;;;4.60;57.50;;;;;;5051823;28;20371;-76
2022/04/21 04:23:17;;;;;;;10.57;5.97;;;4.60;57.70;;;;;;5052627;28;20059;-76
2022/04/21 04:25:43;;;;;;;22.20;11.18;;;4.70;57.90;;;;;;5051190;28;20033;-76
2022/04/21 04:28:09;;;;;;;27.60;13.30;;;4.70;57.90;;;;;;5050958;28;20032;-76
2022/04/21 04:30:36;;;;;;;15.57;8.55;;;4.80;57.60;;;;;;5034645;28;20029;-76
2022/04/21 04:33:02;;;;;;;8.63;6.03;;;4.80;57.30;;;;;;5051285;28;20033;-76
2022/04/21 04:35:29;;;;;;;10.20;5.65;;;4.90;57.20;;;;;;5034876;28;20032;-76
2022/04/21 04:37:55;;;;;;;9.38;6.40;;;4.90;56.90;;;;;;5034918;28;20112;-76
2022/04/21 04:40:20;;;;;;;11.00;6.63;;;5.00;57.60;;;;;;5050881;28;20039;-76
2022/04/21 04:42:46;;;;;;;12.35;7.55;;;5.00;56.90;;;;;;5051301;28;20030;-76
2022/04/21 04:47:56;;;;;;;14.63;7.70;;;4.80;57.30;;;;;;5054038;28;20044;-76
2022/04/21 04:50:21;;;;;;;13.15;7.63;;;4.80;57.50;;;;;;5056088;28;20029;-76
2022/04/21 04:52:47;;;;;;;13.65;6.90;;;4.70;57.70;;;;;;5054810;28;20153;-76
2022/04/21 04:55:13;;;;;;;14.57;6.57;;;4.50;58.00;;;;;;5054940;28;20017;-76
2022/04/21 04:57:39;;;;;;;11.43;6.47;;;4.50;58.30;;;;;;5054600;28;20021;-76
2022/04/21 05:00:07;;;;;;;11.98;6.32;;;4.60;58.00;;;;;;5038555;28;20372;-77
2022/04/21 05:02:32;;;;;;;13.82;6.63;;;4.60;57.40;;;;;;5056306;28;20112;-76
2022/04/21 05:04:58;;;;;;;11.60;6.60;;;4.60;57.00;;;;;;5056213;28;20021;-78
2022/04/21 05:07:24;;;;;;;14.25;7.72;;;4.40;57.70;;;;;;5037984;28;20136;-76
2022/04/21 05:09:49;;;;;;;12.48;7.63;;;4.00;59.40;;;;;;5054662;28;20024;-78
2022/04/21 05:12:18;;;;;;;10.93;6.82;;;4.10;59.80;;;;;;5038701;28;20049;-76
2022/04/21 05:14:44;;;;;;;12.68;7.07;;;4.20;59.50;;;;;;5055921;28;20025;-76
2022/04/21 05:17:10;;;;;;;10.07;6.63;;;4.30;59.00;;;;;;5054617;28;20025;-75
2022/04/21 05:19:36;;;;;;;8.95;5.85;;;4.60;58.40;;;;;;5054566;28;20024;-75
2022/04/21 05:22:04;;;;;;;12.05;6.68;;;4.70;58.00;;;;;;5054159;28;20474;-77
2022/04/21 05:24:31;;;;;;;11.75;6.18;;;4.90;57.60;;;;;;5054846;28;20029;-77
2022/04/21 05:27:02;;;;;;;11.15;6.18;;;5.10;57.10;;;;;;5053871;28;20116;-77
2022/04/21 05:32:18;;;;;;;8.05;5.57;;;5.30;56.40;;;;;;5058187;28;20472;-76
2022/04/21 05:34:44;;;;;;;7.07;5.13;;;5.30;55.80;;;;;;5055778;28;20540;-76
2022/04/21 05:37:10;;;;;;;10.57;6.35;;;5.40;55.50;;;;;;5037484;28;20037;-76
2022/04/21 05:39:36;;;;;;;9.85;6.22;;;5.50;55.40;;;;;;5057875;28;20035;-75
2022/04/21 05:42:05;;;;;;;15.02;6.47;;;5.60;55.10;;;;;;5056335;28;20099;-75
2022/04/21 05:44:31;;;;;;;10.93;5.90;;;5.70;55.00;;;;;;5054114;28;20029;-74
2022/04/21 05:46:58;;;;;;;8.85;6.10;;;5.80;54.80;;;;;;5053818;28;20098;-76
2022/04/21 05:49:24;;;;;;;8.35;5.78;;;5.90;54.70;;;;;;5053343;28;20552;-76
2022/04/21 05:51:51;;;;;;;9.45;6.43;;;5.90;54.40;;;;;;5055032;28;20029;-76
2022/04/21 05:54:17;;;;;;;10.05;6.35;;;6.00;54.20;;;;;;5053541;28;20021;-77
2022/04/21 05:56:44;;;;;;;10.48;6.20;;;6.10;53.90;;;;;;5053330;28;20028;-76
2022/04/21 05:59:10;;;;;;;14.15;6.95;;;6.30;53.70;;;;;;5036295;28;20036;-77
2022/04/21 06:01:36;;;;;;;12.23;6.88;;;6.30;53.20;;;;;;5053916;28;20040;-76
2022/04/21 06:04:02;;;;;;;11.15;6.63;;;6.40;53.00;;;;;;5053679;28;20036;-75
2022/04/21 06:06:27;;;;;;;13.52;8.02;;;6.60;52.80;;;;;;5053464;28;20047;-75
2022/04/21 06:08:53;;;;;;;11.18;6.57;;;6.70;52.50;;;;;;5053120;28;20397;-75
2022/04/21 06:11:19;;;;;;;19.98;7.78;;;6.60;52.40;;;;;;5053203;28;20021;-75
2022/04/21 06:13:44;;;;;;;10.68;7.03;;;6.30;53.20;;;;;;5054749;28;20025;-76
2022/04/21 06:16:10;;;;;;;16.23;7.47;;;6.20;53.70;;;;;;5054415;28;20024;-74
2022/04/21 06:18:36;;;;;;;13.25;7.25;;;6.10;54.70;;;;;;5053061;28;20076;-76
2022/04/21 06:21:03;;;;;;;13.98;8.13;;;6.20;55.30;;;;;;5053969;28;20108;-76
2022/04/21 06:23:31;;;;;;;12.35;7.32;;;6.50;56.20;;;;;;5052678;28;20071;-76
2022/04/21 06:25:59;;;;;;;12.18;7.00;;;6.70;57.00;;;;;;5052799;28;20025;-75
2022/04/21 06:28:25;;;;;;;8.20;6.18;;;6.90;56.00;;;;;;5053484;28;20056;-75
2022/04/21 06:30:51;;;;;;;10.27;7.30;;;7.10;54.70;;;;;;5052953;28;20021;-75
2022/04/21 06:33:18;;;;;;;12.23;7.13;;;7.40;54.00;;;;;;5052906;28;20078;-75
2022/04/21 06:35:44;;;;;;;22.00;6.85;;;7.60;53.00;;;;;;5053336;28;20021;-72
2022/04/21 06:38:10;;;;;;;30.25;8.02;;;7.60;59.10;;;;;;5054137;28;20047;-72
2022/04/21 06:40:36;;;;;;;13.05;7.00;;;8.30;59.80;;;;;;5054354;28;20475;-73
2022/04/21 06:48:01;;;;;;;10.70;7.18;;;8.90;56.90;;;;;;5054351;28;20032;-74
2022/04/21 06:48:38;;;;;;;10.88;6.97;;;9.80;49.80;;;;;;5053137;28;20040;-74
2022/04/21 06:51:05;;;;;;;12.85;7.40;;;10.00;48.00;;;;;;5053043;28;20052;-74
2022/04/21 06:53:30;;;;;;;10.45;6.40;;;10.30;46.60;;;;;;5052922;28;20025;-73
2022/04/21 06:55:56;;;;;;;10.52;6.50;;;10.40;45.70;;;;;;5052781;28;20034;-73
2022/04/21 06:58:22;;;;;;;9.63;5.57;;;10.40;45.20;;;;;;5052880;28;20048;-75
2022/04/21 07:00:48;;;;;;;10.93;6.38;;;10.50;45.00;;;;;;5052091;28;20028;-74
2022/04/21 07:03:13;;;;;;;8.05;5.70;;;10.70;45.70;;;;;;5052584;28;20050;-74
2022/04/21 07:05:39;;;;;;;9.45;6.38;;;11.00;44.70;;;;;;5052292;28;20424;-74
2022/04/21 07:08:06;;;;;;;13.93;6.82;;;11.30;43.50;;;;;;5052161;28;20538;-74
2022/04/21 07:10:32;;;;;;;8.40;6.28;;;11.40;42.10;;;;;;5052466;28;20044;-74
2022/04/21 07:12:58;;;;;;;12.93;7.00;;;11.60;42.60;;;;;;5053506;28;20020;-78
2022/04/21 07:15:24;;;;;;;14.10;6.30;;;11.40;42.60;;;;;;5053551;28;20083;-77
2022/04/21 07:17:50;;;;;;;13.25;7.07;;;11.50;42.50;;;;;;5053116;28;20037;-77
2022/04/21 07:20:15;;;;;;;11.02;6.30;;;11.60;42.30;;;;;;5053236;28;20060;-75
2022/04/21 07:22:41;;;;;;;8.10;5.57;;;11.70;42.00;;;;;;5053359;28;20021;-74
2022/04/21 07:25:09;;;;;;;11.90;6.80;;;11.80;42.00;;;;;;5053334;28;20378;-74
2022/04/21 07:27:36;;;;;;;11.35;6.88;;;12.00;41.20;;;;;;5052045;28;20044;-73
2022/04/21 07:30:02;;;;;;;11.32;7.55;;;12.10;41.20;;;;;;5053388;28;20021;-79
2022/04/21 07:32:28;;;;;;;9.27;7.22;;;11.80;40.00;;;;;;5053088;28;20382;-80
2022/04/21 07:34:54;;;;;;;12.50;8.27;;;11.80;40.80;;;;;;5053423;28;20021;-80
2022/04/21 07:37:20;;;;;;;12.55;8.15;;;11.30;41.00;;;;;;5052874;28;20076;-78
2022/04/21 07:39:45;;;;;;;16.00;7.72;;;11.10;42.00;;;;;;5051934;28;20071;-78
2022/04/21 07:42:11;;;;;;;13.57;8.45;;;11.00;42.70;;;;;;5053005;28;20069;-78
2022/04/21 07:44:37;;;;;;;16.90;8.15;;;10.70;43.00;;;;;;5052950;28;20062;-77
2022/04/21 07:47:07;;;;;;;13.85;8.02;;;10.60;43.70;;;;;;5052686;28;20041;-77
2022/04/21 07:49:45;;;;;;;12.85;7.57;;;10.60;44.10;;;;;;5052984;28;20391;-78
2022/04/21 07:55:05;;;;;;;14.43;7.40;;;10.60;44.30;;;;;;5053176;28;20203;-78
2022/04/21 07:57:31;;;;;;;10.27;7.20;;;10.80;44.80;;;;;;5052794;28;20052;-77
2022/04/21 07:59:56;;;;;;;18.90;8.48;;;10.80;44.50;;;;;;5052847;28;20057;-77
2022/04/21 08:02:22;;;;;;;17.98;9.23;;;10.90;45.40;;;;;;5051389;28;20025;-78
2022/04/21 08:04:48;;;;;;;15.18;7.97;;;10.90;45.90;;;;;;5053089;28;20021;-78
2022/04/21 08:07:14;;;;;;;16.23;8.35;;;10.70;45.70;;;;;;5052108;28;20525;-82
2022/04/21 08:09:40;;;;;;;13.82;8.45;;;10.80;46.80;;;;;;5052562;28;20025;-84
2022/04/21 08:12:07;;;;;;;10.98;7.80;;;10.80;47.50;;;;;;5052801;28;20526;-83
2022/04/21 08:14:33;;;;;;;12.07;8.15;;;10.80;47.30;;;;;;5053443;28;20021;-83
2022/04/21 08:16:58;;;;;;;15.15;8.30;;;10.80;47.20;;;;;;5053353;28;20124;-82
2022/04/21 08:19:24;;;;;;;13.32;8.38;;;10.80;48.00;;;;;;5064804;28;20048;-79
2022/04/21 08:21:49;;;;;;;13.23;8.93;;;10.90;49.00;;;;;;5062860;28;20481;-82
2022/04/21 08:32:37;;;;;;;11.63;7.60;;;11.30;47.70;;;;;;5053178;28;20424;-81
2022/04/21 08:35:06;;;;;;;12.35;7.63;;;11.40;48.50;;;;;;5053173;28;20028;-80
2022/04/21 08:37:35;;;;;;;12.52;8.60;;;11.40;48.40;;;;;;5053069;28;20045;-81
2022/04/21 08:40:01;;;;;;;18.77;8.63;;;11.50;48.60;;;;;;5052203;28;20029;-82
2022/04/21 08:42:30;;;;;;;11.70;7.95;;;11.60;47.20;;;;;;5053339;28;20055;-82
2022/04/21 08:44:57;;;;;;;12.70;8.30;;;11.60;47.40;;;;;;5051453;28;20060;-83
2022/04/21 08:47:27;;;;;;;14.27;8.32;;;11.70;47.00;;;;;;5052304;28;20086;-79
2022/04/21 08:49:58;;;;;;;12.43;7.32;;;11.80;46.50;;;;;;5053675;28;20025;-81
2022/04/21 08:52:24;;;;;;;11.95;7.55;;;11.80;46.90;;;;;;5054646;28;20483;-83
2022/04/21 08:54:50;;;;;;;11.30;8.30;;;12.00;46.90;;;;;;5053822;28;20351;-84
2022/04/21 08:57:15;;;;;;;11.98;8.20;;;12.20;46.20;;;;;;5052921;28;20055;-83
2022/04/21 08:59:41;;;;;;;13.98;7.63;;;12.40;46.00;;;;;;5052592;28;20025;-83
2022/04/21 09:02:07;;;;;;;12.80;8.50;;;12.70;45.70;;;;;;5052646;28;20027;-80
2022/04/21 09:04:32;;;;;;;14.10;7.65;;;12.80;44.60;;;;;;5052375;28;20450;-80
2022/04/21 09:07:15;;;;;;;14.38;8.57;;;12.90;44.80;;;;;;5052526;28;20080;-81
2022/04/21 09:10:03;;;;;;;10.13;7.88;;;13.10;43.70;;;;;;5052824;28;20029;-82
2022/04/21 09:12:28;;;;;;;13.27;8.63;;;13.10;43.30;;;;;;5056874;28;20029;-80
2022/04/21 09:14:54;;;;;;;13.18;9.38;;;13.10;43.50;;;;;;5054689;28;20096;-82
2022/04/21 09:17:20;;;;;;;11.30;8.52;;;13.10;43.40;;;;;;5052767;28;20113;-83
2022/04/21 09:19:57;;;;;;;11.13;8.85;;;13.00;44.10;;;;;;5050942;28;20377;-83
2022/04/21 09:22:22;;;;;;;16.70;8.88;;;13.20;43.20;;;;;;5053703;28;20025;-83
2022/04/21 09:24:52;;;;;;;11.27;8.93;;;13.40;42.50;;;;;;5052099;28;20067;-77
2022/04/21 09:27:18;;;;;;;10.70;8.20;;;13.60;42.60;;;;;;5051819;28;20490;-82
2022/04/21 09:29:43;;;;;;;10.13;8.10;;;13.80;41.20;;;;;;5051846;28;20025;-80
2022/04/21 09:32:09;;;;;;;12.63;8.73;;;13.90;40.60;;;;;;5051857;28;20083;-79
2022/04/21 09:34:36;;;;;;;14.00;8.52;;;13.80;41.30;;;;;;5052605;28;20479;-77
2022/04/21 09:37:04;;;;;;;12.18;8.20;;;14.00;40.10;;;;;;5055518;28;20051;-80
2022/04/21 09:39:30;;;;;;;12.00;9.02;;;13.80;40.10;;;;;;5055320;28;20017;-81
2022/04/21 09:41:56;;;;;;;14.57;9.07;;;13.90;40.60;;;;;;5054417;28;20577;-81
2022/04/21 09:47:18;;;;;;;12.52;9.07;;;14.00;40.50;;;;;;5055712;28;20082;-81
2022/04/21 09:49:44;;;;;;;17.00;9.55;;;14.10;39.90;;;;;;5055599;28;20024;-82
2022/04/21 09:52:10;;;;;;;12.57;9.25;;;14.20;39.80;;;;;;5055252;28;20025;-81
2022/04/21 09:54:36;;;;;;;13.80;9.65;;;14.60;39.30;;;;;;5055410;28;20032;-83
2022/04/21 09:57:03;;;;;;;12.13;8.80;;;14.60;38.70;;;;;;5055211;28;20056;-82
2022/04/21 09:59:29;;;;;;;20.40;9.48;;;14.80;38.70;;;;;;5054643;28;20025;-82
2022/04/21 10:01:55;;;;;;;11.40;8.02;;;15.20;38.40;;;;;;5053879;28;20024;-80
2022/04/21 10:04:22;;;;;;;14.60;9.10;;;15.50;37.30;;;;;;5054613;28;20478;-81
2022/04/21 10:06:48;;;;;;;13.52;8.77;;;15.50;36.10;;;;;;5054611;28;20049;-81
2022/04/21 10:09:18;;;;;;;10.25;8.43;;;15.60;36.20;;;;;;5054941;28;20107;-80
2022/04/21 10:11:44;;;;;;;10.20;8.23;;;15.40;36.60;;;;;;5054865;28;20021;-82
2022/04/21 10:14:15;;;;;;;12.27;8.55;;;15.30;37.00;;;;;;5054787;28;20439;-79
2022/04/21 10:16:42;;;;;;;11.55;8.02;;;15.50;36.40;;;;;;5057946;23;20068;-80
2022/04/21 10:19:09;;;;;;;11.18;7.63;;;15.70;35.60;;;;;;5050788;28;20100;-77
2022/04/21 10:21:42;;;;;;;13.52;8.10;;;16.00;35.30;;;;;;5045165;28;20522;-81
2022/04/21 10:24:09;;;;;;;10.63;8.18;;;16.00;34.90;;;;;;5054279;28;20498;-80
2022/04/21 10:26:36;;;;;;;12.93;7.80;;;16.20;36.00;;;;;;5054266;28;20036;-78
2022/04/21 10:29:15;;;;;;;12.27;7.63;;;16.50;35.10;;;;;;5053981;28;20395;-78
2022/04/21 10:31:46;;;;;;;10.20;7.40;;;16.90;35.30;;;;;;5054168;28;20022;-79
2022/04/21 10:34:26;;;;;;;11.68;7.50;;;17.20;33.20;;;;;;5054176;28;20501;-78
2022/04/21 10:37:08;;;;;;;12.63;8.65;;;17.40;32.70;;;;;;5054272;28;20017;-80
2022/04/21 10:39:35;;;;;;;11.93;8.38;;;17.50;32.40;;;;;;5054124;28;20029;-78
2022/04/21 10:42:17;;;;;;;11.00;8.55;;;17.40;32.20;;;;;;5054411;28;20017;-80
2022/04/21 10:44:51;;;;;;;14.35;9.77;;;17.10;32.70;;;;;;5055558;28;20043;-80
2022/04/21 10:47:37;;;;;;;11.80;8.52;;;17.20;32.60;;;;;;5054079;28;20495;-79
2022/04/21 10:50:10;;;;;;;;;;;17.10;32.80;;;;;;5054424;28;20055;-79
2022/04/21 10:57:53;;;;;;;12.63;9.45;;;17.40;33.20;;;;;;5053868;28;20044;-79
2022/04/21 11:00:27;;;;;;;12.90;9.50;;;17.60;32.40;;;;;;5052445;28;20017;-80
2022/04/21 11:03:03;;;;;;;18.60;9.80;;;17.10;32.90;;;;;;5052432;28;20439;-76
2022/04/21 11:05:35;;;;;;;12.82;9.45;;;17.00;33.60;;;;;;5053955;28;20021;-77
2022/04/21 11:08:09;;;;;;;10.85;8.35;;;16.80;34.00;;;;;;5053519;28;20044;-78
2022/04/21 11:10:38;;;;;;;13.02;9.13;;;16.80;34.30;;;;;;5053740;28;20029;-76
2022/04/21 11:13:11;;;;;;;10.13;8.02;;;17.30;34.40;;;;;;5053572;28;20021;-77
2022/04/21 11:15:50;;;;;;;14.32;9.40;;;17.70;33.00;;;;;;5053377;28;20095;-74
2022/04/21 11:18:29;;;;;;;12.35;8.90;;;17.80;32.20;;;;;;5052411;28;20029;-75
2022/04/21 11:21:26;;;;;;;14.10;9.05;;;17.90;32.50;;;;;;5053417;28;20105;-76
2022/04/21 11:23:52;;;;;;;13.70;9.60;;;18.20;32.30;;;;;;5053389;28;20071;-74
2022/04/21 11:26:25;;;;;;;10.43;8.77;;;18.30;31.50;;;;;;5053456;28;20033;-76
2022/04/21 11:28:51;;;;;;;12.50;9.10;;;18.40;31.80;;;;;;5053654;28;20542;-78
2022/04/21 11:31:20;;;;;;;11.63;9.90;;;18.30;31.80;;;;;;5053559;28;20075;-76
2022/04/21 11:33:46;;;;;;;13.02;9.52;;;18.30;32.10;;;;;;5053572;28;20348;-74
2022/04/21 11:36:13;;;;;;;11.95;9.63;;;18.20;32.50;;;;;;5053519;28;20052;-74
2022/04/21 11:38:44;;;;;;;11.20;9.88;;;18.30;32.30;;;;;;5053243;28;20052;-74
2022/04/21 11:41:12;;;;;;;14.15;10.10;;;18.40;31.90;;;;;;5053169;28;20018;-75
2022/04/21 11:43:48;;;;;;;17.17;11.15;;;18.20;32.30;;;;;;5053140;28;20052;-76
2022/04/21 11:46:14;;;;;;;12.32;9.13;;;17.80;33.00;;;;;;5052996;28;20040;-74
2022/04/21 11:48:41;;;;;;;16.63;8.73;;;17.80;33.20;;;;;;5052972;28;20021;-74
2022/04/21 11:51:09;;;;;;;10.15;8.75;;;18.40;33.60;;;;;;5052690;28;20029;-76
2022/04/21 11:53:42;;;;;;;11.77;9.75;;;18.70;32.50;;;;;;5052922;28;20028;-77
2022/04/21 11:56:09;;;;;;;13.48;10.07;;;19.00;31.30;;;;;;5052485;28;20115;-75
2022/04/21 11:58:41;;;;;;;14.50;9.52;;;18.90;31.40;;;;;;5050758;28;20032;-75
2022/04/21 12:06:53;;;;;;;13.75;11.07;;;18.80;32.40;;;;;;5052553;28;20059;-76
2022/04/21 12:09:21;;;;;;;16.58;10.52;;;18.30;33.30;;;;;;5052435;28;20070;-76
2022/04/21 12:11:49;;;;;;;17.13;9.93;;;18.30;33.40;;;;;;5052726;28;20410;-75
2022/04/21 12:14:16;;;;;;;15.20;10.25;;;18.40;32.90;;;;;;5052499;28;20021;-78
2022/04/21 12:16:57;;;;;;;14.10;10.20;;;18.30;32.50;;;;;;5052675;28;20056;-73
2022/04/21 12:19:40;;;;;;;14.35;10.38;;;18.30;32.30;;;;;;5052529;28;20387;-78
2022/04/21 12:22:15;;;;;;;11.82;8.88;;;18.70;32.20;;;;;;5052233;28;20021;-77
2022/04/21 12:24:41;;;;;;;10.70;8.70;;;19.10;32.00;;;;;;5052471;28;20498;-76
2022/04/21 12:27:20;;;;;;;13.30;8.27;;;19.50;31.40;;;;;;5052216;28;20040;-77
2022/04/21 12:30:06;;;;;;;9.75;8.68;;;19.90;30.70;;;;;;5052623;28;20029;-77
2022/04/21 12:32:33;;;;;;;9.90;7.97;;;20.20;29.20;;;;;;5052234;28;20582;-77
2022/04/21 12:35:01;;;;;;;11.73;7.55;;;20.40;28.30;;;;;;5052377;28;20037;-77
2022/04/21 12:37:32;;;;;;;13.80;8.38;;;20.60;28.50;;;;;;5052265;28;20104;-76
2022/04/21 12:40:00;;;;;;;9.27;8.07;;;20.60;27.90;;;;;;5052310;28;20029;-77
2022/04/21 12:42:28;;;;;;;9.32;7.72;;;20.70;28.00;;;;;;5051674;28;20028;-75
2022/04/21 12:44:54;;;;;;;8.32;6.95;;;20.50;27.50;;;;;;5050829;28;20044;-76
2022/04/21 12:47:21;;;;;;;12.57;7.88;;;20.60;27.90;;;;;;5051962;28;20434;-76
2022/04/21 12:49:49;;;;;;;8.50;6.95;;;20.80;28.10;;;;;;5051852;28;20101;-76
2022/04/21 12:52:25;;;;;;;11.05;7.13;;;21.00;27.70;;;;;;5051814;28;20040;-77
2022/04/21 12:54:51;;;;;;;8.25;7.30;;;21.30;27.60;;;;;;5052021;28;20017;-76
2022/04/21 12:57:17;;;;;;;9.20;6.78;;;21.50;26.20;;;;;;5052015;28;20103;-75
2022/04/21 12:59:44;;;;;;;9.98;6.75;;;21.50;26.80;;;;;;5052274;28;20398;-77
2022/04/21 13:02:10;;;;;;;11.77;6.85;;;21.60;26.40;;;;;;5051855;28;20025;-78
2022/04/21 13:04:36;;;;;;;7.20;6.50;;;21.70;26.30;;;;;;5052198;28;20018;-77
2022/04/21 13:07:03;;;;;;;8.77;6.43;;;21.60;25.70;;;;;;5051892;28;20025;-77
2022/04/21 13:09:29;;;;;;;8.65;6.43;;;21.50;26.30;;;;;;5054389;28;20452;-78
2022/04/21 13:11:54;;;;;;;10.27;6.72;;;21.50;26.40;;;;;;5055504;28;20060;-78
2022/04/21 13:14:20;;;;;;;10.85;7.43;;;21.80;26.20;;;;;;5055677;28;20434;-78
2022/04/21 13:16:45;;;;;;;7.18;6.45;;;21.60;25.70;;;;;;5055718;28;20577;-78
2022/04/21 13:19:11;;;;;;;10.27;7.07;;;21.60;25.60;;;;;;5055698;28;20021;-78
2022/04/21 13:24:28;;;;;;;9.20;5.63;;;21.70;26.00;;;;;;5055753;28;20040;-78
2022/04/21 13:26:55;;;;;;;9.50;6.18;;;21.80;27.60;;;;;;5055542;28;20483;-78
2022/04/21 13:29:21;;;;;;;8.65;5.93;;;22.00;26.40;;;;;;5055546;28;20025;-78
2022/04/21 13:34:32;;;;;;;6.97;5.63;;;22.10;26.00;;;;;;5055477;28;20040;-78
2022/04/21 13:36:58;;;;;;;7.85;5.22;;;22.30;25.90;;;;;;5055478;28;20111;-77
2022/04/21 13:39:23;;;;;;;9.50;6.13;;;22.50;25.70;;;;;;5055065;28;20044;-78
2022/04/21 13:41:49;;;;;;;6.93;5.10;;;22.20;25.50;;;;;;5055216;28;20021;-79
2022/04/21 13:44:15;;;;;;;8.85;6.93;;;22.30;25.70;;;;;;5055199;28;20043;-76
2022/04/21 13:46:41;;;;;;;8.60;6.05;;;21.90;25.40;;;;;;5055056;28;20391;-78